Aérodrome :
LOGIN :

S'inscrire | Disclaimer

   EN    FR    IT 

 










Légende :    VFR   VFR Marginal   IFR   IFR Intensif   IFR Très Intensif
Visi : 
Plafond : 
>= 8 km
>= 3000ft
5 à 8 km
1000 à 3000 ft
1500m à 5 km
500 à 1000 ft
800 à 1500m
200 à 500 ft
< 800m
< 200 ft
Symboles :   Orages  Brouillard  Fortes neiges  Fortes précipitations  Vent > 20 kt
SIGMETs :   Divers  Orages  Givrage  Turbulence  Onde Orograph.  Cendres Volcan.







- Altitude de l'aérodrome : 36 ft
- Code IATA : LTQ
- Voir les cartes d'approche


LFAT - Le Touquet

DERNIER METAR :
  • 151530Z AUTO 34017KT 9999 BKN019 BKN026 OVC040 06/03 Q0998 TEMPO 4000 SHRA BKN015TCU

METARs EXPIRÉS :
  • 151500Z AUTO 34016KT 320V020 9999 BKN018 BKN024 BKN030 05/03 Q0998 TEMPO 4000 SHRA BKN015TCU
  • 151430Z AUTO 35014KT 9999 BKN018 BKN025 OVC032 05/03 Q0997 TEMPO 4000 SHRA BKN015TCU
  • 151400Z AUTO 36015KT 340V040 9999 SCT018 BKN024 OVC030 05/02 Q0997 TEMPO 4000 SHRA BKN015TCU
  • 151330Z AUTO 35017KT 330V050 9999 BKN015 BKN020 OVC027 05/03 Q0996 TEMPO 4000 SHRA BKN015TCU
  • 151300Z AUTO 35010KT 340V050 9999 OVC015 05/03 Q0996 TEMPO 4000 SHRA BKN015TCU

TAF TAF LFAT
Valide du 15 à 15h jusqu'au 16 à 00h UTC


151400Z 1515/1524 35013KT 9999 BKN025
TEMPO 1516/1519 4000 SHRA BKN015TCU
ATIS : +33 3 21 06 62 84
Pas de NOTAMs connus pour ce terrain.



MET'MAP, la Météo Aéronautique d'un coup d'oeil ! - Copyright ORBIFLY Décembre 2007 - Disclaimer

ORBIFLY MET'MAP TEAM :

Programmation & Développement : Alexandra Zaïnal
Conception & Développement : Baudouin d'Aumeries
Co-Programmation & Développement : Marc-Olivier Méhu
Soutien technique & logistique : Manuel Goepfert

Contact : metmap@orbifly.com




SOURCES & CREDITS :

   NOAA